sensor_id;sensor_type;location;lat;lon;timestamp;temperature;humidity
42339;DHT22;27993;45.392;10.918;2022-10-17T00:00:10;16.40;99.90
42339;DHT22;27993;45.392;10.918;2022-10-17T00:02:41;16.40;99.90
42339;DHT22;27993;45.392;10.918;2022-10-17T00:05:12;16.40;99.90
42339;DHT22;27993;45.392;10.918;2022-10-17T00:07:42;16.50;99.90
42339;DHT22;27993;45.392;10.918;2022-10-17T00:10:13;16.50;99.90
42339;DHT22;27993;45.392;10.918;2022-10-17T00:12:44;16.50;99.90
42339;DHT22;27993;45.392;10.918;2022-10-17T00:15:16;16.50;99.90
42339;DHT22;27993;45.392;10.918;2022-10-17T00:17:47;16.50;99.90
42339;DHT22;27993;45.392;10.918;2022-10-17T00:20:18;16.40;99.90
42339;DHT22;27993;45.392;10.918;2022-10-17T00:22:49;16.40;99.90
42339;DHT22;27993;45.392;10.918;2022-10-17T00:25:20;16.40;99.90
42339;DHT22;27993;45.392;10.918;2022-10-17T00:27:50;16.40;99.90
42339;DHT22;27993;45.392;10.918;2022-10-17T00:30:21;16.40;99.90
42339;DHT22;27993;45.392;10.918;2022-10-17T00:32:51;16.40;99.90
42339;DHT22;27993;45.392;10.918;2022-10-17T00:35:22;16.40;99.90
42339;DHT22;27993;45.392;10.918;2022-10-17T00:37:53;16.50;99.90
42339;DHT22;27993;45.392;10.918;2022-10-17T00:40:23;16.40;99.90
42339;DHT22;27993;45.392;10.918;2022-10-17T00:42:54;16.40;99.90
42339;DHT22;27993;45.392;10.918;2022-10-17T00:45:29;16.40;99.90
42339;DHT22;27993;45.392;10.918;2022-10-17T00:48:04;16.40;99.90
42339;DHT22;27993;45.392;10.918;2022-10-17T00:50:41;16.40;99.90
42339;DHT22;27993;45.392;10.918;2022-10-17T00:53:13;16.40;99.90
42339;DHT22;27993;45.392;10.918;2022-10-17T00:55:50;16.30;99.90
42339;DHT22;27993;45.392;10.918;2022-10-17T00:58:22;16.30;99.90
42339;DHT22;27993;45.392;10.918;2022-10-17T01:00:52;16.30;99.90
42339;DHT22;27993;45.392;10.918;2022-10-17T01:03:23;16.30;99.90
42339;DHT22;27993;45.392;10.918;2022-10-17T01:05:54;16.30;99.90
42339;DHT22;27993;45.392;10.918;2022-10-17T01:08:24;16.20;99.90
42339;DHT22;27993;45.392;10.918;2022-10-17T01:13:51;16.30;99.90
42339;DHT22;27993;45.392;10.918;2022-10-17T01:22:06;16.20;99.90
42339;DHT22;27993;45.392;10.918;2022-10-17T01:25:04;16.20;99.90
42339;DHT22;27993;45.392;10.918;2022-10-17T01:36:53;16.20;99.90
42339;DHT22;27993;45.392;10.918;2022-10-17T01:42:38;16.10;99.90
42339;DHT22;27993;45.392;10.918;2022-10-17T01:45:48;16.10;99.90
42339;DHT22;27993;45.392;10.918;2022-10-17T01:48:27;16.10;99.90
42339;DHT22;27993;45.392;10.918;2022-10-17T01:54:17;16.10;99.90
42339;DHT22;27993;45.392;10.918;2022-10-17T01:56:55;16.00;99.90
42339;DHT22;27993;45.392;10.918;2022-10-17T01:59:37;15.90;99.90
42339;DHT22;27993;45.392;10.918;2022-10-17T02:02:09;15.90;99.90
42339;DHT22;27993;45.392;10.918;2022-10-17T02:04:41;15.90;99.90
42339;DHT22;27993;45.392;10.918;2022-10-17T02:07:15;15.80;99.90
42339;DHT22;27993;45.392;10.918;2022-10-17T02:09:45;15.80;99.90
42339;DHT22;27993;45.392;10.918;2022-10-17T02:18:14;15.90;99.90
42339;DHT22;27993;45.392;10.918;2022-10-17T02:21:10;15.80;99.90
42339;DHT22;27993;45.392;10.918;2022-10-17T02:23:57;15.80;99.90
42339;DHT22;27993;45.392;10.918;2022-10-17T02:26:45;15.70;99.90
42339;DHT22;27993;45.392;10.918;2022-10-17T02:29:24;15.70;99.90
42339;DHT22;27993;45.392;10.918;2022-10-17T02:32:12;15.80;99.90
42339;DHT22;27993;45.392;10.918;2022-10-17T02:34:50;15.70;99.90
42339;DHT22;27993;45.392;10.918;2022-10-17T02:37:25;15.80;99.90
42339;DHT22;27993;45.392;10.918;2022-10-17T02:39:58;15.70;99.90
42339;DHT22;27993;45.392;10.918;2022-10-17T02:42:30;15.70;99.90
42339;DHT22;27993;45.392;10.918;2022-10-17T02:45:01;15.70;99.90
42339;DHT22;27993;45.392;10.918;2022-10-17T02:47:49;15.80;99.90
42339;DHT22;27993;45.392;10.918;2022-10-17T02:50:33;15.80;99.90
42339;DHT22;27993;45.392;10.918;2022-10-17T02:53:09;15.80;99.90
42339;DHT22;27993;45.392;10.918;2022-10-17T02:55:50;15.80;99.90
42339;DHT22;27993;45.392;10.918;2022-10-17T02:58:26;15.80;99.90
42339;DHT22;27993;45.392;10.918;2022-10-17T03:00:59;15.70;99.90
42339;DHT22;27993;45.392;10.918;2022-10-17T03:03:31;15.70;99.90
42339;DHT22;27993;45.392;10.918;2022-10-17T03:06:02;15.80;99.90
42339;DHT22;27993;45.392;10.918;2022-10-17T03:08:33;15.80;99.90
42339;DHT22;27993;45.392;10.918;2022-10-17T03:11:03;15.80;99.90
42339;DHT22;27993;45.392;10.918;2022-10-17T03:13:34;15.80;99.90
42339;DHT22;27993;45.392;10.918;2022-10-17T03:16:07;15.80;99.90
42339;DHT22;27993;45.392;10.918;2022-10-17T03:18:38;15.70;99.90
42339;DHT22;27993;45.392;10.918;2022-10-17T03:21:08;15.70;99.90
42339;DHT22;27993;45.392;10.918;2022-10-17T03:23:39;15.80;99.90
42339;DHT22;27993;45.392;10.918;2022-10-17T03:26:10;15.70;99.90
42339;DHT22;27993;45.392;10.918;2022-10-17T03:28:40;15.70;99.90
42339;DHT22;27993;45.392;10.918;2022-10-17T03:31:15;15.70;99.90
42339;DHT22;27993;45.392;10.918;2022-10-17T03:33:46;15.70;99.90
42339;DHT22;27993;45.392;10.918;2022-10-17T03:36:17;15.70;99.90
42339;DHT22;27993;45.392;10.918;2022-10-17T03:38:49;15.70;99.90
42339;DHT22;27993;45.392;10.918;2022-10-17T03:41:22;15.70;99.90
42339;DHT22;27993;45.392;10.918;2022-10-17T03:43:53;15.70;99.90
42339;DHT22;27993;45.392;10.918;2022-10-17T03:46:26;15.70;99.90
42339;DHT22;27993;45.392;10.918;2022-10-17T03:48:56;15.70;99.90
42339;DHT22;27993;45.392;10.918;2022-10-17T03:51:27;15.80;99.90
42339;DHT22;27993;45.392;10.918;2022-10-17T03:53:57;15.80;99.90
42339;DHT22;27993;45.392;10.918;2022-10-17T03:56:28;15.80;99.90
42339;DHT22;27993;45.392;10.918;2022-10-17T03:58:59;15.70;99.90
42339;DHT22;27993;45.392;10.918;2022-10-17T04:01:29;15.80;99.90
42339;DHT22;27993;45.392;10.918;2022-10-17T04:04:00;15.80;99.90
42339;DHT22;27993;45.392;10.918;2022-10-17T04:06:31;15.70;99.90
42339;DHT22;27993;45.392;10.918;2022-10-17T04:09:02;15.60;99.90
42339;DHT22;27993;45.392;10.918;2022-10-17T04:11:33;15.50;99.90
42339;DHT22;27993;45.392;10.918;2022-10-17T04:14:04;15.30;99.90
42339;DHT22;27993;45.392;10.918;2022-10-17T04:16:35;15.40;99.90
42339;DHT22;27993;45.392;10.918;2022-10-17T04:19:05;15.40;99.90
42339;DHT22;27993;45.392;10.918;2022-10-17T04:21:36;15.30;99.90
42339;DHT22;27993;45.392;10.918;2022-10-17T04:24:09;15.30;99.90
42339;DHT22;27993;45.392;10.918;2022-10-17T04:26:41;15.40;99.90
42339;DHT22;27993;45.392;10.918;2022-10-17T04:29:11;15.40;99.90
42339;DHT22;27993;45.392;10.918;2022-10-17T04:31:42;15.40;99.90
42339;DHT22;27993;45.392;10.918;2022-10-17T04:34:13;15.50;99.90
42339;DHT22;27993;45.392;10.918;2022-10-17T04:36:43;15.50;99.90
42339;DHT22;27993;45.392;10.918;2022-10-17T04:39:15;15.50;99.90
42339;DHT22;27993;45.392;10.918;2022-10-17T04:41:45;15.50;99.90
42339;DHT22;27993;45.392;10.918;2022-10-17T04:44:16;15.50;99.90
42339;DHT22;27993;45.392;10.918;2022-10-17T04:46:47;15.60;99.90
42339;DHT22;27993;45.392;10.918;2022-10-17T04:49:20;15.50;99.90
42339;DHT22;27993;45.392;10.918;2022-10-17T04:51:51;15.60;99.90
42339;DHT22;27993;45.392;10.918;2022-10-17T04:54:22;15.60;99.90
42339;DHT22;27993;45.392;10.918;2022-10-17T04:56:52;15.50;99.90
42339;DHT22;27993;45.392;10.918;2022-10-17T04:59:23;15.50;99.90
42339;DHT22;27993;45.392;10.918;2022-10-17T05:01:54;15.50;99.90
42339;DHT22;27993;45.392;10.918;2022-10-17T05:04:24;15.50;99.90
42339;DHT22;27993;45.392;10.918;2022-10-17T05:06:56;15.50;99.90
42339;DHT22;27993;45.392;10.918;2022-10-17T05:09:27;15.60;99.90
42339;DHT22;27993;45.392;10.918;2022-10-17T05:11:57;15.60;99.90
42339;DHT22;27993;45.392;10.918;2022-10-17T05:14:28;15.50;99.90
42339;DHT22;27993;45.392;10.918;2022-10-17T05:16:59;15.40;99.90
42339;DHT22;27993;45.392;10.918;2022-10-17T05:19:29;15.40;99.90
42339;DHT22;27993;45.392;10.918;2022-10-17T05:22:00;15.40;99.90
42339;DHT22;27993;45.392;10.918;2022-10-17T05:24:30;15.40;99.90
42339;DHT22;27993;45.392;10.918;2022-10-17T05:27:01;15.40;99.90
42339;DHT22;27993;45.392;10.918;2022-10-17T05:29:33;15.50;99.90
42339;DHT22;27993;45.392;10.918;2022-10-17T05:32:04;15.60;99.90
42339;DHT22;27993;45.392;10.918;2022-10-17T05:34:35;15.70;99.90
42339;DHT22;27993;45.392;10.918;2022-10-17T05:37:06;15.70;99.90
42339;DHT22;27993;45.392;10.918;2022-10-17T05:39:36;15.60;99.90
42339;DHT22;27993;45.392;10.918;2022-10-17T05:42:07;15.60;99.90
42339;DHT22;27993;45.392;10.918;2022-10-17T05:44:37;15.60;99.90
42339;DHT22;27993;45.392;10.918;2022-10-17T05:47:09;15.50;99.90
42339;DHT22;27993;45.392;10.918;2022-10-17T05:49:42;15.50;99.90
42339;DHT22;27993;45.392;10.918;2022-10-17T05:52:13;15.50;99.90
42339;DHT22;27993;45.392;10.918;2022-10-17T05:54:43;15.40;99.90
42339;DHT22;27993;45.392;10.918;2022-10-17T05:57:14;15.30;99.90
42339;DHT22;27993;45.392;10.918;2022-10-17T05:59:45;15.40;99.90
42339;DHT22;27993;45.392;10.918;2022-10-17T06:02:15;15.50;99.90
42339;DHT22;27993;45.392;10.918;2022-10-17T06:04:46;15.50;99.90
42339;DHT22;27993;45.392;10.918;2022-10-17T06:07:18;15.50;99.90
42339;DHT22;27993;45.392;10.918;2022-10-17T06:09:49;15.40;99.90
42339;DHT22;27993;45.392;10.918;2022-10-17T06:12:19;15.30;99.90
42339;DHT22;27993;45.392;10.918;2022-10-17T06:14:50;15.40;99.90
42339;DHT22;27993;45.392;10.918;2022-10-17T06:17:21;15.60;99.90
42339;DHT22;27993;45.392;10.918;2022-10-17T06:19:51;15.60;99.90
42339;DHT22;27993;45.392;10.918;2022-10-17T06:22:22;15.80;99.90
42339;DHT22;27993;45.392;10.918;2022-10-17T06:24:53;15.80;99.90
42339;DHT22;27993;45.392;10.918;2022-10-17T06:27:24;15.90;99.90
42339;DHT22;27993;45.392;10.918;2022-10-17T06:29:54;15.80;99.90
42339;DHT22;27993;45.392;10.918;2022-10-17T06:32:25;15.90;99.90
42339;DHT22;27993;45.392;10.918;2022-10-17T06:34:55;16.00;99.90
42339;DHT22;27993;45.392;10.918;2022-10-17T06:37:30;16.00;99.90
42339;DHT22;27993;45.392;10.918;2022-10-17T06:40:02;16.10;99.90
42339;DHT22;27993;45.392;10.918;2022-10-17T06:42:33;16.20;99.90
42339;DHT22;27993;45.392;10.918;2022-10-17T06:45:04;16.30;99.90
42339;DHT22;27993;45.392;10.918;2022-10-17T06:47:36;16.30;99.90
42339;DHT22;27993;45.392;10.918;2022-10-17T06:50:06;16.40;99.90
42339;DHT22;27993;45.392;10.918;2022-10-17T06:52:37;16.40;99.90
42339;DHT22;27993;45.392;10.918;2022-10-17T06:55:08;16.60;99.90
42339;DHT22;27993;45.392;10.918;2022-10-17T06:57:39;16.70;99.90
42339;DHT22;27993;45.392;10.918;2022-10-17T07:00:10;16.90;99.90
42339;DHT22;27993;45.392;10.918;2022-10-17T07:02:42;17.00;99.90
42339;DHT22;27993;45.392;10.918;2022-10-17T07:05:13;17.10;99.90
42339;DHT22;27993;45.392;10.918;2022-10-17T07:07:44;17.20;99.90
42339;DHT22;27993;45.392;10.918;2022-10-17T07:10:15;17.40;99.90
42339;DHT22;27993;45.392;10.918;2022-10-17T07:12:45;17.50;99.90
42339;DHT22;27993;45.392;10.918;2022-10-17T07:15:16;17.60;99.90
42339;DHT22;27993;45.392;10.918;2022-10-17T07:17:48;17.70;99.90
42339;DHT22;27993;45.392;10.918;2022-10-17T07:20:20;17.80;99.90
42339;DHT22;27993;45.392;10.918;2022-10-17T07:22:50;18.00;99.90
42339;DHT22;27993;45.392;10.918;2022-10-17T07:25:21;18.30;99.90
42339;DHT22;27993;45.392;10.918;2022-10-17T07:27:52;18.30;99.90
42339;DHT22;27993;45.392;10.918;2022-10-17T07:30:22;18.40;99.90
42339;DHT22;27993;45.392;10.918;2022-10-17T07:32:53;18.40;99.90
42339;DHT22;27993;45.392;10.918;2022-10-17T07:35:24;18.80;99.90
42339;DHT22;27993;45.392;10.918;2022-10-17T07:37:54;19.30;99.90
42339;DHT22;27993;45.392;10.918;2022-10-17T07:40:25;19.60;99.90
42339;DHT22;27993;45.392;10.918;2022-10-17T07:42:55;19.70;99.90
42339;DHT22;27993;45.392;10.918;2022-10-17T07:45:26;19.80;99.90
42339;DHT22;27993;45.392;10.918;2022-10-17T07:47:57;20.20;99.90
42339;DHT22;27993;45.392;10.918;2022-10-17T07:50:27;20.60;99.90
42339;DHT22;27993;45.392;10.918;2022-10-17T07:52:58;20.70;99.90
42339;DHT22;27993;45.392;10.918;2022-10-17T07:55:29;21.00;99.90
42339;DHT22;27993;45.392;10.918;2022-10-17T07:57:59;21.20;99.90
42339;DHT22;27993;45.392;10.918;2022-10-17T08:00:30;21.30;99.90
42339;DHT22;27993;45.392;10.918;2022-10-17T08:03:01;21.40;99.90
42339;DHT22;27993;45.392;10.918;2022-10-17T08:05:32;21.70;99.90
42339;DHT22;27993;45.392;10.918;2022-10-17T08:08:03;21.60;99.90
42339;DHT22;27993;45.392;10.918;2022-10-17T08:10:34;22.00;99.90
42339;DHT22;27993;45.392;10.918;2022-10-17T08:13:04;22.60;99.90
42339;DHT22;27993;45.392;10.918;2022-10-17T08:15:36;22.50;99.90
42339;DHT22;27993;45.392;10.918;2022-10-17T08:18:06;22.10;99.90
42339;DHT22;27993;45.392;10.918;2022-10-17T08:20:37;21.90;99.90
42339;DHT22;27993;45.392;10.918;2022-10-17T08:23:08;22.60;99.90
42339;DHT22;27993;45.392;10.918;2022-10-17T08:25:38;22.70;99.90
42339;DHT22;27993;45.392;10.918;2022-10-17T08:28:09;22.70;99.90
42339;DHT22;27993;45.392;10.918;2022-10-17T08:30:39;22.80;99.90
42339;DHT22;27993;45.392;10.918;2022-10-17T08:33:10;22.50;99.90
42339;DHT22;27993;45.392;10.918;2022-10-17T08:35:41;22.20;99.90
42339;DHT22;27993;45.392;10.918;2022-10-17T08:38:14;22.50;99.90
42339;DHT22;27993;45.392;10.918;2022-10-17T08:40:48;23.20;99.90
42339;DHT22;27993;45.392;10.918;2022-10-17T08:46:21;23.70;99.90
42339;DHT22;27993;45.392;10.918;2022-10-17T08:48:52;24.40;99.90
42339;DHT22;27993;45.392;10.918;2022-10-17T08:51:32;23.80;99.90
42339;DHT22;27993;45.392;10.918;2022-10-17T08:54:16;23.80;99.90
42339;DHT22;27993;45.392;10.918;2022-10-17T08:56:49;23.80;99.90
42339;DHT22;27993;45.392;10.918;2022-10-17T08:59:27;24.60;99.90
42339;DHT22;27993;45.392;10.918;2022-10-17T09:03:04;25.00;99.90
42339;DHT22;27993;45.392;10.918;2022-10-17T09:08:34;25.80;99.90
42339;DHT22;27993;45.392;10.918;2022-10-17T09:11:33;25.10;99.90
42339;DHT22;27993;45.392;10.918;2022-10-17T09:14:21;25.10;99.90
42339;DHT22;27993;45.392;10.918;2022-10-17T09:20:17;25.50;99.90
42339;DHT22;27993;45.392;10.918;2022-10-17T09:25:25;27.00;99.90
42339;DHT22;27993;45.392;10.918;2022-10-17T09:30:46;27.70;99.90
42339;DHT22;27993;45.392;10.918;2022-10-17T09:33:23;28.00;99.90
42339;DHT22;27993;45.392;10.918;2022-10-17T09:35:58;28.10;99.90
42339;DHT22;27993;45.392;10.918;2022-10-17T09:38:37;29.00;99.90
42339;DHT22;27993;45.392;10.918;2022-10-17T09:41:21;28.70;99.90
42339;DHT22;27993;45.392;10.918;2022-10-17T09:43:55;28.80;99.90
42339;DHT22;27993;45.392;10.918;2022-10-17T09:46:33;29.30;99.90
42339;DHT22;27993;45.392;10.918;2022-10-17T09:49:09;29.90;99.90
42339;DHT22;27993;45.392;10.918;2022-10-17T09:51:41;29.90;99.90
42339;DHT22;27993;45.392;10.918;2022-10-17T09:54:21;30.80;99.90
42339;DHT22;27993;45.392;10.918;2022-10-17T09:57:07;31.20;99.90
42339;DHT22;27993;45.392;10.918;2022-10-17T10:00:00;30.70;99.90
42339;DHT22;27993;45.392;10.918;2022-10-17T10:02:30;29.90;99.90
42339;DHT22;27993;45.392;10.918;2022-10-17T10:05:15;28.70;99.90
42339;DHT22;27993;45.392;10.918;2022-10-17T10:08:15;28.10;99.90
42339;DHT22;27993;45.392;10.918;2022-10-17T10:10:56;29.10;99.90
42339;DHT22;27993;45.392;10.918;2022-10-17T10:13:28;29.60;99.90
42339;DHT22;27993;45.392;10.918;2022-10-17T10:18:51;29.20;99.90
42339;DHT22;27993;45.392;10.918;2022-10-17T10:21:24;28.90;99.90
42339;DHT22;27993;45.392;10.918;2022-10-17T10:24:16;29.70;99.90
42339;DHT22;27993;45.392;10.918;2022-10-17T10:26:49;29.50;99.90
42339;DHT22;27993;45.392;10.918;2022-10-17T10:29:31;29.90;99.90
42339;DHT22;27993;45.392;10.918;2022-10-17T10:34:52;30.30;99.90
42339;DHT22;27993;45.392;10.918;2022-10-17T10:37:44;31.30;99.90
42339;DHT22;27993;45.392;10.918;2022-10-17T10:40:49;31.60;99.90
42339;DHT22;27993;45.392;10.918;2022-10-17T10:46:18;30.20;99.90
42339;DHT22;27993;45.392;10.918;2022-10-17T10:49:00;29.20;99.90
42339;DHT22;27993;45.392;10.918;2022-10-17T10:51:41;29.10;99.90
42339;DHT22;27993;45.392;10.918;2022-10-17T10:54:21;28.30;99.90
42339;DHT22;27993;45.392;10.918;2022-10-17T10:56:59;28.20;99.90
42339;DHT22;27993;45.392;10.918;2022-10-17T10:59:47;28.30;99.90
42339;DHT22;27993;45.392;10.918;2022-10-17T11:03:17;28.70;99.90
42339;DHT22;27993;45.392;10.918;2022-10-17T11:05:49;28.60;99.90
42339;DHT22;27993;45.392;10.918;2022-10-17T11:09:03;27.50;99.90
42339;DHT22;27993;45.392;10.918;2022-10-17T11:11:44;27.70;99.90
42339;DHT22;27993;45.392;10.918;2022-10-17T11:17:16;27.10;99.90
42339;DHT22;27993;45.392;10.918;2022-10-17T11:23:40;27.50;99.90
42339;DHT22;27993;45.392;10.918;2022-10-17T11:25:52;27.20;99.90
42339;DHT22;27993;45.392;10.918;2022-10-17T11:28:24;26.90;99.90
42339;DHT22;27993;45.392;10.918;2022-10-17T11:31:12;26.70;99.90
42339;DHT22;27993;45.392;10.918;2022-10-17T11:33:55;26.50;99.90
42339;DHT22;27993;45.392;10.918;2022-10-17T11:36:33;26.60;99.90
42339;DHT22;27993;45.392;10.918;2022-10-17T11:39:18;26.40;99.90
42339;DHT22;27993;45.392;10.918;2022-10-17T11:42:03;26.20;99.90
42339;DHT22;27993;45.392;10.918;2022-10-17T11:44:39;26.60;99.90
42339;DHT22;27993;45.392;10.918;2022-10-17T11:52:50;26.20;99.90
42339;DHT22;27993;45.392;10.918;2022-10-17T11:55:24;26.20;99.90
42339;DHT22;27993;45.392;10.918;2022-10-17T12:03:31;26.20;99.90
42339;DHT22;27993;45.392;10.918;2022-10-17T12:12:04;26.20;99.90
42339;DHT22;27993;45.392;10.918;2022-10-17T12:14:45;26.10;99.90
42339;DHT22;27993;45.392;10.918;2022-10-17T12:17:32;26.30;99.90
42339;DHT22;27993;45.392;10.918;2022-10-17T12:25:53;26.10;99.90
42339;DHT22;27993;45.392;10.918;2022-10-17T12:28:27;26.10;99.90
42339;DHT22;27993;45.392;10.918;2022-10-17T12:31:01;26.10;99.90
42339;DHT22;27993;45.392;10.918;2022-10-17T12:33:54;26.30;99.90
42339;DHT22;27993;45.392;10.918;2022-10-17T12:46:54;26.20;99.90
42339;DHT22;27993;45.392;10.918;2022-10-17T12:49:41;26.30;99.90
42339;DHT22;27993;45.392;10.918;2022-10-17T12:54:57;26.40;99.90
42339;DHT22;27993;45.392;10.918;2022-10-17T12:57:43;26.50;99.90
42339;DHT22;27993;45.392;10.918;2022-10-17T13:03:29;26.20;99.90
42339;DHT22;27993;45.392;10.918;2022-10-17T13:06:05;26.20;99.90
42339;DHT22;27993;45.392;10.918;2022-10-17T13:08:43;26.20;99.90
42339;DHT22;27993;45.392;10.918;2022-10-17T13:11:15;26.00;99.90
42339;DHT22;27993;45.392;10.918;2022-10-17T13:13:53;25.90;99.90
42339;DHT22;27993;45.392;10.918;2022-10-17T13:16:52;25.80;99.90
42339;DHT22;27993;45.392;10.918;2022-10-17T13:19:30;25.80;99.90
42339;DHT22;27993;45.392;10.918;2022-10-17T13:22:02;25.80;99.90
42339;DHT22;27993;45.392;10.918;2022-10-17T13:24:45;25.70;99.90
42339;DHT22;27993;45.392;10.918;2022-10-17T13:27:29;25.70;99.90
42339;DHT22;27993;45.392;10.918;2022-10-17T13:32:43;25.80;99.90
42339;DHT22;27993;45.392;10.918;2022-10-17T13:35:21;25.70;99.90
42339;DHT22;27993;45.392;10.918;2022-10-17T13:37:53;25.60;99.90
42339;DHT22;27993;45.392;10.918;2022-10-17T13:40:27;25.60;99.90
42339;DHT22;27993;45.392;10.918;2022-10-17T13:42:59;25.60;99.90
42339;DHT22;27993;45.392;10.918;2022-10-17T13:45:36;25.40;99.90
42339;DHT22;27993;45.392;10.918;2022-10-17T13:50:59;25.30;99.90
42339;DHT22;27993;45.392;10.918;2022-10-17T13:56:30;25.30;99.90
42339;DHT22;27993;45.392;10.918;2022-10-17T14:01:42;25.20;99.90
42339;DHT22;27993;45.392;10.918;2022-10-17T14:04:14;25.20;99.90
42339;DHT22;27993;45.392;10.918;2022-10-17T14:06:46;25.10;99.90
42339;DHT22;27993;45.392;10.918;2022-10-17T14:09:26;25.20;99.90
42339;DHT22;27993;45.392;10.918;2022-10-17T14:12:11;25.00;99.90
42339;DHT22;27993;45.392;10.918;2022-10-17T14:14:58;24.90;99.90
42339;DHT22;27993;45.392;10.918;2022-10-17T14:17:33;24.90;99.90
42339;DHT22;27993;45.392;10.918;2022-10-17T14:25:37;24.70;99.90
42339;DHT22;27993;45.392;10.918;2022-10-17T14:30:46;24.80;99.90
42339;DHT22;27993;45.392;10.918;2022-10-17T14:38:44;24.50;99.90
42339;DHT22;27993;45.392;10.918;2022-10-17T14:41:24;24.40;99.90
42339;DHT22;27993;45.392;10.918;2022-10-17T15:05:18;24.00;99.90
42339;DHT22;27993;45.392;10.918;2022-10-17T15:13:11;24.00;99.90
42339;DHT22;27993;45.392;10.918;2022-10-17T15:15:43;23.90;99.90
42339;DHT22;27993;45.392;10.918;2022-10-17T15:18:13;24.00;99.90
42339;DHT22;27993;45.392;10.918;2022-10-17T15:20:44;23.90;99.90
42339;DHT22;27993;45.392;10.918;2022-10-17T15:23:14;23.90;99.90
42339;DHT22;27993;45.392;10.918;2022-10-17T15:25:45;23.90;99.90
42339;DHT22;27993;45.392;10.918;2022-10-17T15:28:15;23.90;99.90
42339;DHT22;27993;45.392;10.918;2022-10-17T15:30:46;23.80;99.90
42339;DHT22;27993;45.392;10.918;2022-10-17T15:33:17;23.80;99.90
42339;DHT22;27993;45.392;10.918;2022-10-17T15:35:47;23.70;99.90
42339;DHT22;27993;45.392;10.918;2022-10-17T15:38:18;23.60;99.90
42339;DHT22;27993;45.392;10.918;2022-10-17T15:40:48;23.60;99.90
42339;DHT22;27993;45.392;10.918;2022-10-17T15:43:21;23.50;99.90
42339;DHT22;27993;45.392;10.918;2022-10-17T15:45:54;23.50;99.90
42339;DHT22;27993;45.392;10.918;2022-10-17T15:48:27;23.30;99.90
42339;DHT22;27993;45.392;10.918;2022-10-17T15:50:57;23.30;99.90
42339;DHT22;27993;45.392;10.918;2022-10-17T15:53:28;23.10;99.90
42339;DHT22;27993;45.392;10.918;2022-10-17T15:55:59;23.10;99.90
42339;DHT22;27993;45.392;10.918;2022-10-17T15:58:32;23.00;99.90
42339;DHT22;27993;45.392;10.918;2022-10-17T16:01:04;22.90;99.90
42339;DHT22;27993;45.392;10.918;2022-10-17T16:03:35;22.90;99.90
42339;DHT22;27993;45.392;10.918;2022-10-17T16:06:07;22.80;99.90
42339;DHT22;27993;45.392;10.918;2022-10-17T16:08:40;22.70;99.90
42339;DHT22;27993;45.392;10.918;2022-10-17T16:11:32;22.70;99.90
42339;DHT22;27993;45.392;10.918;2022-10-17T16:14:12;22.60;99.90
42339;DHT22;27993;45.392;10.918;2022-10-17T16:16:43;22.50;99.90
42339;DHT22;27993;45.392;10.918;2022-10-17T16:19:14;22.40;99.90
42339;DHT22;27993;45.392;10.918;2022-10-17T16:21:45;22.40;99.90
42339;DHT22;27993;45.392;10.918;2022-10-17T16:24:16;22.20;99.90
42339;DHT22;27993;45.392;10.918;2022-10-17T16:26:47;22.20;99.90
42339;DHT22;27993;45.392;10.918;2022-10-17T16:29:17;22.00;99.90
42339;DHT22;27993;45.392;10.918;2022-10-17T16:31:48;21.90;99.90
42339;DHT22;27993;45.392;10.918;2022-10-17T16:34:18;21.90;99.90
42339;DHT22;27993;45.392;10.918;2022-10-17T16:36:49;21.80;99.90
42339;DHT22;27993;45.392;10.918;2022-10-17T16:39:19;21.80;99.90
42339;DHT22;27993;45.392;10.918;2022-10-17T16:41:53;21.70;99.90
42339;DHT22;27993;45.392;10.918;2022-10-17T16:44:24;21.70;99.90
42339;DHT22;27993;45.392;10.918;2022-10-17T16:46:55;21.60;99.90
42339;DHT22;27993;45.392;10.918;2022-10-17T16:49:26;21.50;99.90
42339;DHT22;27993;45.392;10.918;2022-10-17T16:51:56;21.40;99.90
42339;DHT22;27993;45.392;10.918;2022-10-17T16:54:27;21.40;99.90
42339;DHT22;27993;45.392;10.918;2022-10-17T16:56:58;21.30;99.90
42339;DHT22;27993;45.392;10.918;2022-10-17T17:04:53;21.20;99.90
42339;DHT22;27993;45.392;10.918;2022-10-17T17:07:23;21.20;99.90
42339;DHT22;27993;45.392;10.918;2022-10-17T17:09:54;21.20;99.90
42339;DHT22;27993;45.392;10.918;2022-10-17T17:12:25;21.10;99.90
42339;DHT22;27993;45.392;10.918;2022-10-17T17:14:56;21.10;99.90
42339;DHT22;27993;45.392;10.918;2022-10-17T17:17:27;21.00;99.90
42339;DHT22;27993;45.392;10.918;2022-10-17T17:19:57;21.00;99.90
42339;DHT22;27993;45.392;10.918;2022-10-17T17:22:28;21.00;99.90
42339;DHT22;27993;45.392;10.918;2022-10-17T17:24:59;20.90;99.90
42339;DHT22;27993;45.392;10.918;2022-10-17T17:27:29;20.90;99.90
42339;DHT22;27993;45.392;10.918;2022-10-17T17:30:00;20.80;99.90
42339;DHT22;27993;45.392;10.918;2022-10-17T17:32:31;20.80;99.90
42339;DHT22;27993;45.392;10.918;2022-10-17T17:35:01;20.70;99.90
42339;DHT22;27993;45.392;10.918;2022-10-17T17:37:32;20.60;99.90
42339;DHT22;27993;45.392;10.918;2022-10-17T17:40:03;20.60;99.90
42339;DHT22;27993;45.392;10.918;2022-10-17T17:42:35;20.50;99.90
42339;DHT22;27993;45.392;10.918;2022-10-17T17:45:06;20.50;99.90
42339;DHT22;27993;45.392;10.918;2022-10-17T17:47:37;20.50;99.90
42339;DHT22;27993;45.392;10.918;2022-10-17T17:50:07;20.50;99.90
42339;DHT22;27993;45.392;10.918;2022-10-17T17:52:38;20.50;99.90
42339;DHT22;27993;45.392;10.918;2022-10-17T17:55:11;20.40;99.90
42339;DHT22;27993;45.392;10.918;2022-10-17T17:57:42;20.30;99.90
42339;DHT22;27993;45.392;10.918;2022-10-17T18:00:13;20.30;99.90
42339;DHT22;27993;45.392;10.918;2022-10-17T18:02:43;20.30;99.90
42339;DHT22;27993;45.392;10.918;2022-10-17T18:05:14;20.20;99.90
42339;DHT22;27993;45.392;10.918;2022-10-17T18:07:45;20.10;99.90
42339;DHT22;27993;45.392;10.918;2022-10-17T18:10:15;20.00;99.90
42339;DHT22;27993;45.392;10.918;2022-10-17T18:12:46;20.00;99.90
42339;DHT22;27993;45.392;10.918;2022-10-17T18:15:17;20.10;99.90
42339;DHT22;27993;45.392;10.918;2022-10-17T18:17:47;19.90;99.90
42339;DHT22;27993;45.392;10.918;2022-10-17T18:20:18;19.80;99.90
42339;DHT22;27993;45.392;10.918;2022-10-17T18:22:49;19.70;99.90
42339;DHT22;27993;45.392;10.918;2022-10-17T18:25:19;19.70;99.90
42339;DHT22;27993;45.392;10.918;2022-10-17T18:27:50;19.70;99.90
42339;DHT22;27993;45.392;10.918;2022-10-17T18:30:20;19.70;99.90
42339;DHT22;27993;45.392;10.918;2022-10-17T18:32:51;19.60;99.90